Terminal Aerodrome Forecast
Issued by NWS Pocatello, ID

Home | Current Version | Previous Version | Text Only | Print | Product List | Glossary On
Versions: 1 2 3 4 5 6 7 8 9 10 11 12 13
394
FTUS45 KPIH 300520
TAFIDA
TAF
KIDA 300520Z 3006/0106 20006KT P6SM VCSH SCT070 BKN130
     FM301700 01014KT P6SM VCSH OVC060
     FM302100 02012KT P6SM -SHRA VCTS SCT040CB BKN080
     FM010200 02006KT P6SM VCSH SCT040 BKN080=

USA.gov is the U.S. government's official web portal to all federal, state and local government web resources and services.